createdAt,value
2023-02-12T00:01:37.238Z,21.55
2023-02-12T00:04:06.950Z,21.73
2023-02-12T00:06:35.466Z,20.20
2023-02-12T00:09:04.124Z,19.13
2023-02-12T00:11:32.640Z,23.33
2023-02-12T00:14:02.978Z,21.70
2023-02-12T00:16:31.773Z,17.88
2023-02-12T00:19:00.817Z,18.25
2023-02-12T00:21:30.568Z,14.93
2023-02-12T00:23:59.180Z,16.58
2023-02-12T00:26:27.678Z,17.60
2023-02-12T00:28:56.346Z,17.75
2023-02-12T00:31:27.006Z,17.02
2023-02-12T00:33:59.194Z,15.75
2023-02-12T00:36:31.387Z,16.63
2023-02-12T00:39:02.175Z,14.32
2023-02-12T00:41:31.240Z,15.35
2023-02-12T00:43:59.788Z,16.73
2023-02-12T00:46:28.258Z,17.23
2023-02-12T00:48:56.883Z,15.73
2023-02-12T00:51:25.193Z,15.00
2023-02-12T00:53:55.175Z,15.60
2023-02-12T00:56:23.477Z,14.70
2023-02-12T00:58:51.982Z,15.90
2023-02-12T01:01:20.602Z,17.23
2023-02-12T01:03:49.194Z,16.13
2023-02-12T01:06:17.794Z,16.55
2023-02-12T01:08:52.518Z,14.93
2023-02-12T01:11:22.442Z,15.15
2023-02-12T01:13:50.762Z,15.70
2023-02-12T01:16:23.404Z,16.02
2023-02-12T01:18:55.642Z,17.90
2023-02-12T01:21:29.073Z,17.67
2023-02-12T01:23:57.620Z,21.45
2023-02-12T01:26:28.235Z,17.42
2023-02-12T01:29:01.885Z,15.27
2023-02-12T01:31:33.122Z,15.40
2023-02-12T01:34:02.273Z,16.13
2023-02-12T01:36:31.662Z,15.88
2023-02-12T01:39:02.658Z,16.45
2023-02-12T01:41:35.289Z,13.82
2023-02-12T01:44:11.448Z,13.80
2023-02-12T01:46:40.867Z,13.63
2023-02-12T01:49:15.741Z,13.45
2023-02-12T01:51:46.105Z,14.75
2023-02-12T01:54:17.470Z,13.40
2023-02-12T01:56:47.220Z,13.60
2023-02-12T01:59:15.917Z,13.18
2023-02-12T02:01:44.712Z,15.35
2023-02-12T02:04:17.469Z,14.25
2023-02-12T02:06:53.621Z,12.77
2023-02-12T02:09:22.140Z,12.43
2023-02-12T02:12:09.476Z,13.88
2023-02-12T02:14:39.887Z,13.32
2023-02-12T02:17:52.893Z,13.60
2023-02-12T02:21:14.338Z,13.07
2023-02-12T02:24:18.161Z,14.02
2023-02-12T02:27:26.476Z,15.93
2023-02-12T02:30:36.875Z,13.93
2023-02-12T02:33:26.256Z,14.00
2023-02-12T02:36:05.205Z,14.07
2023-02-12T02:38:42.322Z,15.25
2023-02-12T02:41:16.650Z,15.57
2023-02-12T02:43:49.324Z,13.55
2023-02-12T02:46:26.663Z,14.98
2023-02-12T02:49:00.413Z,14.57
2023-02-12T02:51:34.194Z,16.33
2023-02-12T02:54:10.531Z,14.25
2023-02-12T02:56:42.377Z,15.30
2023-02-12T02:59:15.171Z,14.73
2023-02-12T03:01:49.065Z,14.63
2023-02-12T03:04:26.841Z,15.13
2023-02-12T03:07:01.894Z,15.52
2023-02-12T03:09:37.079Z,16.52
2023-02-12T03:12:10.861Z,14.90
2023-02-12T03:14:45.771Z,14.23
2023-02-12T03:17:22.461Z,15.95
2023-02-12T03:19:58.746Z,14.85
2023-02-12T03:22:32.413Z,13.57
2023-02-12T03:25:09.625Z,14.07
2023-02-12T03:27:43.064Z,15.32
2023-02-12T03:30:13.705Z,14.73
2023-02-12T03:32:50.846Z,17.27
2023-02-12T03:35:26.185Z,15.32
2023-02-12T03:38:03.914Z,15.23
2023-02-12T03:40:40.682Z,14.85
2023-02-12T03:43:20.717Z,16.23
2023-02-12T03:45:56.920Z,13.85
2023-02-12T03:48:33.398Z,15.43
2023-02-12T03:51:12.762Z,15.43
2023-02-12T03:53:42.857Z,14.02
2023-02-12T03:56:16.386Z,14.85
2023-02-12T03:58:46.424Z,13.18
2023-02-12T04:01:15.549Z,12.90
2023-02-12T04:03:45.593Z,13.38
2023-02-12T04:06:23.190Z,13.15
2023-02-12T04:08:52.108Z,12.00
2023-02-12T04:11:31.850Z,13.65
2023-02-12T04:14:15.563Z,13.32
2023-02-12T04:16:52.057Z,12.85
2023-02-12T04:19:35.831Z,11.65
2023-02-12T04:22:24.326Z,13.02
2023-02-12T04:25:06.583Z,13.18
2023-02-12T04:27:46.375Z,14.25
2023-02-12T04:30:25.198Z,14.73
2023-02-12T04:32:58.196Z,14.02
2023-02-12T04:35:34.946Z,14.50
2023-02-12T04:38:10.981Z,13.80
2023-02-12T04:40:41.229Z,13.38
2023-02-12T04:43:09.946Z,13.55
2023-02-12T04:45:39.453Z,13.45
2023-02-12T04:48:08.307Z,13.45
2023-02-12T04:50:43.319Z,14.27
2023-02-12T04:53:12.136Z,14.55
2023-02-12T04:55:40.787Z,16.20
2023-02-12T04:58:09.601Z,14.20
2023-02-12T05:00:38.180Z,15.20
2023-02-12T05:03:06.781Z,13.60
2023-02-12T05:05:35.411Z,14.00
2023-02-12T05:08:05.346Z,14.65
2023-02-12T05:10:33.852Z,14.10
2023-02-12T05:13:02.846Z,14.05
2023-02-12T05:15:31.401Z,13.52
2023-02-12T05:17:59.894Z,13.07
2023-02-12T05:20:28.417Z,13.95
2023-02-12T05:22:56.623Z,13.88
2023-02-12T05:25:26.502Z,13.90
2023-02-12T05:27:56.684Z,12.73
2023-02-12T05:30:25.349Z,13.25
2023-02-12T05:32:53.810Z,13.43
2023-02-12T05:35:22.337Z,13.40
2023-02-12T05:37:50.830Z,13.95
2023-02-12T05:40:19.610Z,14.88
2023-02-12T05:42:49.269Z,15.18
2023-02-12T05:45:17.857Z,16.00
2023-02-12T05:47:46.388Z,16.45
2023-02-12T05:50:14.926Z,16.15
2023-02-12T05:52:43.107Z,16.05
2023-02-12T05:55:11.620Z,14.98
2023-02-12T05:57:39.864Z,16.40
2023-02-12T06:00:12.738Z,15.77
2023-02-12T06:02:41.747Z,16.58
2023-02-12T06:05:09.965Z,17.60
2023-02-12T06:07:38.533Z,17.95
2023-02-12T06:10:08.668Z,19.00
2023-02-12T06:12:37.285Z,16.85
2023-02-12T06:15:06.231Z,16.90
2023-02-12T06:17:37.195Z,14.98
2023-02-12T06:20:06.601Z,17.80
2023-02-12T06:22:35.094Z,16.75
2023-02-12T06:25:03.913Z,19.20
2023-02-12T06:27:32.471Z,16.80
2023-02-12T06:30:01.001Z,18.33
2023-02-12T06:32:29.766Z,18.20
2023-02-12T06:34:59.362Z,16.95
2023-02-12T06:37:27.911Z,18.58
2023-02-12T06:39:56.425Z,16.48
2023-02-12T06:42:24.914Z,17.35
2023-02-12T06:44:53.438Z,17.90
2023-02-12T06:47:21.940Z,16.27
2023-02-12T06:49:50.115Z,18.58
2023-02-12T06:52:21.124Z,17.98
2023-02-12T06:54:49.680Z,16.55
2023-02-12T06:57:17.853Z,17.75
2023-02-12T06:59:46.432Z,16.45
2023-02-12T07:02:14.621Z,21.42
2023-02-12T07:04:42.856Z,23.88
2023-02-12T07:07:11.220Z,20.25
2023-02-12T07:09:40.890Z,19.20
2023-02-12T07:12:09.554Z,18.85
2023-02-12T07:14:38.361Z,17.45
2023-02-12T07:17:08.603Z,18.05
2023-02-12T07:19:37.377Z,17.65
2023-02-12T07:22:05.978Z,16.17
2023-02-12T07:24:34.548Z,16.45
2023-02-12T07:27:04.119Z,15.50
2023-02-12T07:29:32.798Z,18.13
2023-02-12T07:32:02.259Z,16.27
2023-02-12T07:34:30.989Z,17.17
2023-02-12T07:36:59.538Z,17.63
2023-02-12T07:39:28.780Z,16.45
2023-02-12T07:41:58.219Z,16.45
2023-02-12T07:44:27.857Z,16.67
2023-02-12T07:46:56.387Z,17.25
2023-02-12T07:49:25.532Z,18.40
2023-02-12T07:51:56.760Z,18.48
2023-02-12T07:54:25.542Z,17.55
2023-02-12T07:56:54.093Z,17.25
2023-02-12T07:59:22.702Z,17.27
2023-02-12T08:01:54.049Z,16.25
2023-02-12T08:04:26.139Z,17.23
2023-02-12T08:06:56.816Z,17.73
2023-02-12T08:09:28.269Z,17.88
2023-02-12T08:11:56.910Z,16.70
2023-02-12T08:14:25.688Z,17.38
2023-02-12T08:16:55.433Z,16.58
2023-02-12T08:19:26.626Z,18.65
2023-02-12T08:21:57.871Z,16.52
2023-02-12T08:24:26.845Z,17.35
2023-02-12T08:26:55.625Z,18.60
2023-02-12T08:29:28.110Z,18.10
2023-02-12T08:31:59.942Z,16.67
2023-02-12T08:34:31.377Z,19.10
2023-02-12T08:37:00.137Z,18.20
2023-02-12T08:39:31.382Z,17.08
2023-02-12T08:42:01.778Z,17.17
2023-02-12T08:44:30.542Z,16.60
2023-02-12T08:47:00.232Z,17.95
2023-02-12T08:49:31.321Z,16.02
2023-02-12T08:52:02.039Z,15.88
2023-02-12T08:54:32.568Z,23.92
2023-02-12T08:57:03.419Z,18.42
2023-02-12T08:59:32.338Z,19.40
2023-02-12T09:02:02.508Z,18.02
2023-02-12T09:04:31.149Z,17.33
2023-02-12T09:06:59.687Z,16.83
2023-02-12T09:09:28.067Z,17.15
2023-02-12T09:11:56.661Z,18.42
2023-02-12T09:14:31.165Z,19.52
2023-02-12T09:17:02.877Z,16.85
2023-02-12T09:19:31.968Z,17.77
2023-02-12T09:22:00.773Z,18.67
2023-02-12T09:24:29.388Z,15.38
2023-02-12T09:26:58.054Z,18.67
2023-02-12T09:29:26.665Z,18.15
2023-02-12T09:31:55.364Z,20.15
2023-02-12T09:34:25.035Z,20.42
2023-02-12T09:36:53.621Z,19.27
2023-02-12T09:39:22.170Z,19.75
2023-02-12T09:42:26.549Z,18.85
2023-02-12T09:45:05.112Z,19.08
2023-02-12T09:47:43.769Z,20.10
2023-02-12T09:50:38.455Z,18.35
2023-02-12T09:53:07.221Z,18.35
2023-02-12T09:55:36.760Z,19.70
2023-02-12T09:58:13.943Z,17.42
2023-02-12T10:00:42.237Z,20.95
2023-02-12T10:03:16.941Z,20.02
2023-02-12T10:08:42.655Z,16.20
2023-02-12T10:11:27.910Z,19.92
2023-02-12T10:14:11.805Z,19.63
2023-02-12T10:16:54.867Z,20.20
2023-02-12T10:19:42.470Z,18.90
2023-02-12T10:22:22.620Z,18.65
2023-02-12T10:25:04.118Z,18.83
2023-02-12T10:27:41.153Z,20.17
2023-02-12T10:30:20.853Z,24.70
2023-02-12T10:32:55.767Z,22.85
2023-02-12T10:35:26.090Z,23.40
2023-02-12T10:38:01.998Z,22.23
2023-02-12T10:40:34.586Z,21.23
2023-02-12T10:43:04.663Z,19.40
2023-02-12T10:45:36.517Z,19.92
2023-02-12T10:48:15.769Z,21.15
2023-02-12T10:51:02.032Z,22.98
2023-02-12T10:53:36.889Z,21.40
2023-02-12T10:56:19.033Z,21.90
2023-02-12T10:58:56.759Z,20.20
2023-02-12T11:01:29.005Z,22.83
2023-02-12T11:04:00.112Z,19.52
2023-02-12T11:06:33.308Z,20.55
2023-02-12T11:09:04.503Z,20.13
2023-02-12T11:11:39.898Z,22.90
2023-02-12T11:14:19.030Z,21.80
2023-02-12T11:16:55.003Z,20.42
2023-02-12T11:19:26.447Z,19.33
2023-02-12T11:22:08.462Z,20.00
2023-02-12T11:24:39.530Z,20.52
2023-02-12T11:27:25.533Z,21.80
2023-02-12T11:30:20.190Z,20.90
2023-02-12T11:32:51.608Z,19.87
2023-02-12T11:35:25.806Z,21.45
2023-02-12T11:37:57.840Z,21.58
2023-02-12T11:40:30.087Z,21.77
2023-02-12T11:43:01.600Z,19.60
2023-02-12T11:45:35.589Z,19.90
2023-02-12T11:48:04.411Z,19.20
2023-02-12T11:50:34.181Z,19.58
2023-02-12T11:53:09.353Z,18.33
2023-02-12T11:55:42.223Z,21.15
2023-02-12T11:58:17.981Z,19.83
2023-02-12T12:00:53.034Z,18.80
2023-02-12T12:03:29.378Z,19.48
2023-02-12T12:06:03.834Z,18.95
2023-02-12T12:08:40.514Z,18.83
2023-02-12T12:11:17.200Z,17.52
2023-02-12T12:13:52.063Z,18.13
2023-02-12T12:19:49.969Z,15.02
2023-02-12T12:22:42.138Z,16.30
2023-02-12T12:25:21.906Z,18.75
2023-02-12T12:28:13.341Z,17.80
2023-02-12T12:31:00.786Z,16.63
2023-02-12T12:33:39.858Z,16.67
2023-02-12T12:36:52.405Z,17.15
2023-02-12T12:39:29.677Z,15.73
2023-02-12T12:42:48.387Z,14.15
2023-02-12T12:45:36.274Z,12.23
2023-02-12T12:48:24.256Z,14.15
2023-02-12T12:51:14.725Z,12.82
2023-02-12T12:53:57.076Z,11.23
2023-02-12T12:56:43.461Z,12.98
2023-02-12T12:59:47.702Z,11.55
2023-02-12T13:03:29.210Z,10.48
2023-02-12T13:06:33.330Z,10.60
2023-02-12T13:09:31.655Z,9.77
2023-02-12T13:12:28.629Z,10.52
2023-02-12T13:15:04.694Z,10.52
2023-02-12T13:17:41.350Z,10.10
2023-02-12T13:20:21.014Z,11.85
2023-02-12T13:22:58.607Z,10.57
2023-02-12T13:25:32.766Z,12.57
2023-02-12T13:28:03.865Z,13.70
2023-02-12T13:30:39.403Z,13.32
2023-02-12T13:33:14.379Z,12.57
2023-02-12T13:35:49.489Z,13.23
2023-02-12T13:38:25.600Z,12.60
2023-02-12T13:40:59.623Z,14.45
2023-02-12T13:43:50.613Z,14.60
2023-02-12T13:46:31.168Z,14.32
2023-02-12T13:49:15.397Z,13.98
2023-02-12T13:51:49.610Z,14.55
2023-02-12T13:54:35.505Z,12.93
2023-02-12T13:57:08.933Z,14.65
2023-02-12T13:59:44.238Z,13.25
2023-02-12T14:02:52.595Z,12.60
2023-02-12T14:05:31.271Z,12.65
2023-02-12T14:08:05.896Z,12.50
2023-02-12T14:10:38.810Z,13.23
2023-02-12T14:13:21.991Z,13.82
2023-02-12T14:15:53.704Z,12.18
2023-02-12T14:18:35.403Z,12.32
2023-02-12T14:21:43.992Z,13.50
2023-02-12T14:25:03.529Z,13.50
2023-02-12T14:27:38.150Z,12.30
2023-02-12T14:30:34.300Z,11.25
2023-02-12T14:33:27.315Z,11.73
2023-02-12T14:36:18.323Z,10.65
2023-02-12T14:39:04.305Z,10.57
2023-02-12T14:41:41.733Z,12.32
2023-02-12T14:44:49.087Z,10.63
2023-02-12T14:47:54.233Z,11.27
2023-02-12T14:50:32.362Z,11.73
2023-02-12T14:53:13.724Z,11.07
2023-02-12T14:55:46.950Z,12.27
2023-02-12T14:58:21.163Z,12.15
2023-02-12T15:00:56.001Z,12.68
2023-02-12T15:03:33.187Z,12.07
2023-02-12T15:06:14.349Z,11.98
2023-02-12T15:08:49.917Z,12.48
2023-02-12T15:11:34.997Z,12.00
2023-02-12T15:14:08.798Z,12.18
2023-02-12T15:16:50.197Z,13.43
2023-02-12T15:19:35.310Z,13.57
2023-02-12T15:22:04.052Z,11.88
2023-02-12T15:24:32.581Z,13.98
2023-02-12T15:27:02.031Z,13.23
2023-02-12T15:29:39.286Z,16.52
2023-02-12T15:32:15.575Z,16.77
2023-02-12T15:34:45.516Z,13.80
2023-02-12T15:37:24.469Z,14.38
2023-02-12T15:39:56.968Z,13.52
2023-02-12T15:42:32.898Z,13.70
2023-02-12T15:45:23.091Z,13.73
2023-02-12T15:48:20.610Z,13.45
2023-02-12T15:50:55.076Z,14.23
2023-02-12T15:53:24.469Z,15.65
2023-02-12T15:55:53.735Z,13.35
2023-02-12T15:58:25.722Z,24.05
2023-02-12T16:01:00.775Z,17.20
2023-02-12T16:03:32.356Z,16.08
2023-02-12T16:06:11.108Z,15.07
2023-02-12T16:08:40.839Z,15.43
2023-02-12T16:11:14.692Z,14.77
2023-02-12T16:13:47.967Z,16.23
2023-02-12T16:16:24.562Z,16.95
2023-02-12T16:19:08.792Z,15.20
2023-02-12T16:21:40.057Z,13.43
2023-02-12T16:24:28.557Z,14.27
2023-02-12T16:26:58.868Z,15.55
2023-02-12T16:29:28.148Z,14.32
2023-02-12T16:32:03.402Z,16.65
2023-02-12T16:34:36.633Z,16.02
2023-02-12T16:37:24.611Z,14.82
2023-02-12T16:40:26.056Z,15.80
2023-02-12T16:43:26.462Z,17.73
2023-02-12T16:46:06.314Z,14.90
2023-02-12T16:48:42.896Z,13.10
2023-02-12T16:51:24.735Z,14.73
2023-02-12T16:53:57.344Z,14.38
2023-02-12T16:56:29.346Z,14.70
2023-02-12T16:59:00.320Z,14.82
2023-02-12T17:01:33.384Z,16.60
2023-02-12T17:04:06.737Z,13.77
2023-02-12T17:06:35.342Z,13.52
2023-02-12T17:09:03.551Z,16.75
2023-02-12T17:11:31.804Z,14.73
2023-02-12T17:14:00.305Z,14.23
2023-02-12T17:16:31.092Z,14.68
2023-02-12T17:19:00.568Z,14.93
2023-02-12T17:21:37.699Z,13.65
2023-02-12T17:24:07.083Z,15.77
2023-02-12T17:26:35.550Z,15.15
2023-02-12T17:29:06.079Z,15.82
2023-02-12T17:31:35.113Z,16.30
2023-02-12T17:34:03.697Z,16.92
2023-02-12T17:36:33.551Z,15.18
2023-02-12T17:39:03.857Z,14.10
2023-02-12T17:41:32.741Z,14.23
2023-02-12T17:44:01.393Z,13.95
2023-02-12T17:46:31.020Z,17.92
2023-02-12T17:48:59.410Z,13.70
2023-02-12T17:51:27.709Z,14.93
2023-02-12T17:53:57.630Z,13.55
2023-02-12T17:56:26.495Z,14.38
2023-02-12T17:58:55.210Z,14.75
2023-02-12T18:01:25.113Z,12.80
2023-02-12T18:03:55.771Z,13.68
2023-02-12T18:06:28.129Z,13.30
2023-02-12T18:08:58.631Z,13.38
2023-02-12T18:11:27.630Z,19.15
2023-02-12T18:13:57.676Z,17.00
2023-02-12T18:16:28.128Z,13.80
2023-02-12T18:18:57.110Z,12.95
2023-02-12T18:21:25.679Z,12.77
2023-02-12T18:23:55.413Z,13.23
2023-02-12T18:26:25.358Z,13.15
2023-02-12T18:28:54.587Z,12.93
2023-02-12T18:31:23.370Z,12.77
2023-02-12T18:33:52.192Z,18.25
2023-02-12T18:36:22.275Z,15.38
2023-02-12T18:38:52.747Z,13.07
2023-02-12T18:41:26.107Z,12.55
2023-02-12T18:43:55.266Z,14.93
2023-02-12T18:46:26.508Z,13.32
2023-02-12T18:48:55.393Z,12.98
2023-02-12T18:51:26.249Z,12.90
2023-02-12T18:54:01.610Z,13.23
2023-02-12T18:56:33.204Z,14.30
2023-02-12T18:59:05.705Z,13.13
2023-02-12T19:01:35.887Z,11.98
2023-02-12T19:04:07.158Z,13.40
2023-02-12T19:06:40.598Z,11.70
2023-02-12T19:09:09.830Z,12.63
2023-02-12T19:11:39.451Z,10.85
2023-02-12T19:14:07.983Z,11.43
2023-02-12T19:16:36.832Z,14.68
2023-02-12T19:19:05.444Z,15.52
2023-02-12T19:21:33.939Z,12.07
2023-02-12T19:24:05.205Z,13.30
2023-02-12T19:26:35.674Z,14.70
2023-02-12T19:29:05.940Z,14.60
2023-02-12T19:31:37.374Z,12.85
2023-02-12T19:34:08.440Z,12.77
2023-02-12T19:36:37.769Z,12.82
2023-02-12T19:39:07.525Z,13.27
2023-02-12T19:41:40.647Z,14.45
2023-02-12T19:44:13.591Z,13.18
2023-02-12T19:46:42.504Z,13.98
2023-02-12T19:49:15.506Z,13.15
2023-02-12T19:51:43.857Z,12.82
2023-02-12T19:54:14.931Z,13.45
2023-02-12T19:56:43.947Z,11.88
2023-02-12T19:59:17.092Z,11.32
2023-02-12T20:01:45.950Z,11.05
2023-02-12T20:04:15.766Z,11.10
2023-02-12T20:06:45.784Z,11.95
2023-02-12T20:09:15.013Z,11.90
2023-02-12T20:11:43.886Z,10.88
2023-02-12T20:14:15.175Z,11.45
2023-02-12T20:16:46.652Z,11.50
2023-02-12T20:19:17.978Z,11.52
2023-02-12T20:21:48.705Z,10.40
2023-02-12T20:24:17.378Z,11.40
2023-02-12T20:26:45.896Z,11.30
2023-02-12T20:29:15.878Z,10.88
2023-02-12T20:31:45.564Z,11.82
2023-02-12T20:34:16.760Z,11.68
2023-02-12T20:36:46.883Z,10.50
2023-02-12T20:39:18.073Z,13.63
2023-02-12T20:41:46.650Z,12.65
2023-02-12T20:44:19.895Z,11.38
2023-02-12T20:46:52.506Z,11.93
2023-02-12T20:49:24.618Z,10.35
2023-02-12T20:51:53.238Z,12.13
2023-02-12T20:54:21.841Z,11.93
2023-02-12T20:56:51.448Z,12.50
2023-02-12T20:59:21.106Z,11.35
2023-02-12T21:01:49.649Z,13.23
2023-02-12T21:04:20.729Z,13.70
2023-02-12T21:06:49.416Z,13.38
2023-02-12T21:09:18.656Z,12.40
2023-02-12T21:11:47.721Z,12.75
2023-02-12T21:14:22.773Z,12.02
2023-02-12T21:16:53.806Z,11.32
2023-02-12T21:19:22.932Z,10.70
2023-02-12T21:21:51.436Z,13.15
2023-02-12T21:24:22.557Z,11.98
2023-02-12T21:26:51.847Z,13.25
2023-02-12T21:29:21.399Z,11.85
2023-02-12T21:31:52.826Z,14.32
2023-02-12T21:34:23.954Z,13.32
2023-02-12T21:36:55.068Z,12.80
2023-02-12T21:39:27.227Z,14.25
2023-02-12T21:41:58.341Z,15.35
2023-02-12T21:44:27.561Z,15.02
2023-02-12T21:46:58.544Z,12.68
2023-02-12T21:49:28.020Z,13.68
2023-02-12T21:51:59.178Z,12.45
2023-02-12T21:54:28.858Z,12.55
2023-02-12T21:56:57.671Z,12.38
2023-02-12T21:59:26.465Z,12.18
2023-02-12T22:01:58.548Z,12.73
2023-02-12T22:04:27.328Z,12.10
2023-02-12T22:06:56.510Z,11.73
2023-02-12T22:09:25.415Z,11.45
2023-02-12T22:11:53.693Z,13.02
2023-02-12T22:14:23.030Z,12.07
2023-02-12T22:16:51.641Z,12.98
2023-02-12T22:19:21.325Z,11.88
2023-02-12T22:21:52.388Z,13.55
2023-02-12T22:24:22.147Z,11.18
2023-02-12T22:26:50.516Z,11.00
2023-02-12T22:29:19.311Z,11.38
2023-02-12T22:31:48.501Z,10.48
2023-02-12T22:34:20.456Z,12.00
2023-02-12T22:36:49.073Z,10.50
2023-02-12T22:39:18.474Z,10.73
2023-02-12T22:41:47.132Z,10.07
2023-02-12T22:44:18.347Z,10.25
2023-02-12T22:46:48.130Z,10.82
2023-02-12T22:49:17.618Z,9.55
2023-02-12T22:51:47.316Z,8.48
2023-02-12T22:54:18.467Z,9.02
2023-02-12T22:56:50.843Z,7.72
2023-02-12T22:59:19.591Z,9.93
2023-02-12T23:01:48.110Z,9.35
2023-02-12T23:04:18.583Z,9.32
2023-02-12T23:06:48.646Z,7.88
2023-02-12T23:09:19.164Z,9.13
2023-02-12T23:11:48.278Z,9.13
2023-02-12T23:14:16.592Z,7.65
2023-02-12T23:16:45.542Z,7.95
2023-02-12T23:19:14.457Z,8.82
2023-02-12T23:21:43.370Z,7.22
2023-02-12T23:24:16.068Z,7.40
2023-02-12T23:26:45.867Z,7.10
2023-02-12T23:29:14.478Z,7.85
2023-02-12T23:31:43.112Z,7.00
2023-02-12T23:34:11.709Z,7.60
2023-02-12T23:36:40.280Z,6.50
2023-02-12T23:39:09.522Z,6.95
2023-02-12T23:41:39.250Z,6.70
2023-02-12T23:44:08.003Z,6.18
2023-02-12T23:46:36.682Z,7.50
2023-02-12T23:49:05.511Z,6.38
2023-02-12T23:51:34.162Z,7.18
2023-02-12T23:54:03.112Z,8.35
2023-02-12T23:56:31.350Z,6.35
2023-02-12T23:59:00.904Z,7.43
